createdAt,value
2018-07-14T00:03:21.318Z,96.90
2018-07-14T00:08:24.342Z,97.00
2018-07-14T00:13:27.400Z,97.30
2018-07-14T00:18:30.402Z,97.70
2018-07-14T00:23:33.432Z,98.20
2018-07-14T00:28:36.478Z,98.40
2018-07-14T00:33:39.637Z,98.70
2018-07-14T00:38:42.664Z,99.20
2018-07-14T00:43:45.671Z,99.60
2018-07-14T00:48:48.698Z,99.50
2018-07-14T00:53:51.839Z,99.90
2018-07-14T00:58:54.876Z,99.90
2018-07-14T01:03:57.940Z,99.90
2018-07-14T01:09:01.068Z,99.90
2018-07-14T01:14:04.154Z,99.90
2018-07-14T01:19:07.170Z,99.90
2018-07-14T01:24:10.292Z,99.90
2018-07-14T01:29:14.410Z,99.90
2018-07-14T01:34:17.440Z,99.90
2018-07-14T01:39:20.461Z,99.90
2018-07-14T01:44:23.701Z,99.90
2018-07-14T01:49:26.751Z,99.90
2018-07-14T01:54:29.820Z,99.90
2018-07-14T01:59:32.839Z,99.90
2018-07-14T02:04:35.862Z,99.90
2018-07-14T02:14:41.764Z,99.90
2018-07-14T02:19:44.778Z,99.90
2018-07-14T02:24:47.859Z,99.90
2018-07-14T02:29:50.891Z,99.90
2018-07-14T02:34:54.147Z,99.90
2018-07-14T02:39:57.174Z,99.90
2018-07-14T02:45:00.241Z,99.90
2018-07-14T02:50:03.359Z,99.90
2018-07-14T02:55:06.513Z,99.90
2018-07-14T03:00:09.531Z,99.90
2018-07-14T03:05:12.567Z,99.90
2018-07-14T03:10:15.683Z,99.90
2018-07-14T03:15:18.727Z,99.90
2018-07-14T03:20:21.727Z,99.90
2018-07-14T03:25:24.735Z,99.90
2018-07-14T03:30:27.749Z,99.90
2018-07-14T03:35:30.773Z,99.90
2018-07-14T03:40:33.773Z,99.90
2018-07-14T03:45:36.816Z,99.90
2018-07-14T03:50:39.828Z,99.90
2018-07-14T03:55:42.863Z,99.90
2018-07-14T04:00:45.881Z,99.90
2018-07-14T04:05:48.894Z,99.90
2018-07-14T04:10:51.942Z,99.90
2018-07-14T04:15:54.972Z,99.90
2018-07-14T04:20:57.973Z,99.90
2018-07-14T04:26:00.980Z,99.90
2018-07-14T04:31:03.994Z,99.90
2018-07-14T04:36:07.015Z,99.90
2018-07-14T04:41:10.059Z,99.90
2018-07-14T04:46:13.088Z,99.90
2018-07-14T04:51:16.099Z,99.90
2018-07-14T04:56:19.097Z,99.90
2018-07-14T05:01:22.106Z,99.90
2018-07-14T05:06:25.911Z,99.90
2018-07-14T05:11:28.907Z,99.90
2018-07-14T05:16:32.014Z,99.90
2018-07-14T05:21:35.031Z,99.90
2018-07-14T05:26:38.045Z,99.90
2018-07-14T05:31:41.054Z,99.90
2018-07-14T05:36:44.127Z,99.90
2018-07-14T05:41:47.173Z,99.90
2018-07-14T05:46:50.212Z,99.90
2018-07-14T05:51:53.551Z,99.90
2018-07-14T05:56:56.601Z,99.90
2018-07-14T06:01:59.619Z,99.90
2018-07-14T06:07:02.690Z,99.90
2018-07-14T06:12:05.723Z,99.90
2018-07-14T06:17:08.794Z,99.90
2018-07-14T06:22:11.772Z,99.90
2018-07-14T06:27:14.918Z,99.90
2018-07-14T06:32:17.985Z,99.90
2018-07-14T06:37:20.997Z,99.90
2018-07-14T06:42:24.012Z,99.90
2018-07-14T06:47:27.031Z,99.90
2018-07-14T06:52:30.059Z,99.90
2018-07-14T06:57:33.098Z,99.90
2018-07-14T07:02:36.114Z,99.90
2018-07-14T07:07:39.125Z,99.90
2018-07-14T07:12:42.203Z,99.90
2018-07-14T07:17:45.217Z,99.90
2018-07-14T07:22:48.275Z,99.90
2018-07-14T07:27:51.291Z,99.90
2018-07-14T07:32:54.465Z,99.90
2018-07-14T07:37:57.803Z,99.80
2018-07-14T07:43:00.859Z,99.90
2018-07-14T07:48:03.867Z,99.90
2018-07-14T07:53:07.091Z,99.90
2018-07-14T07:58:10.246Z,99.90
2018-07-14T08:03:13.280Z,99.90
2018-07-14T08:08:16.291Z,99.60
2018-07-14T08:13:19.291Z,99.80
2018-07-14T08:18:22.389Z,99.70
2018-07-14T08:23:25.398Z,99.30
2018-07-14T08:28:28.394Z,99.90
2018-07-14T08:33:31.386Z,99.10
2018-07-14T08:38:34.404Z,98.30
2018-07-14T08:43:37.637Z,97.20
2018-07-14T08:48:40.709Z,97.00
2018-07-14T08:53:43.723Z,96.50
2018-07-14T08:58:46.786Z,97.10
2018-07-14T09:03:49.811Z,97.50
2018-07-14T09:08:52.840Z,96.50
2018-07-14T09:13:55.835Z,95.70
2018-07-14T09:18:59.000Z,95.20
2018-07-14T09:24:02.040Z,95.40
2018-07-14T09:29:05.060Z,94.60
2018-07-14T09:34:08.367Z,95.00
2018-07-14T09:39:11.388Z,94.30
2018-07-14T09:44:14.472Z,92.80
2018-07-14T09:49:17.482Z,91.50
2018-07-14T09:54:20.516Z,89.60
2018-07-14T09:59:23.540Z,89.70
2018-07-14T10:04:26.584Z,85.30
2018-07-14T10:09:29.599Z,85.80
2018-07-14T10:14:32.665Z,88.60
2018-07-14T10:19:35.748Z,88.40
2018-07-14T10:24:38.782Z,85.50
2018-07-14T10:29:41.799Z,85.90
2018-07-14T10:34:44.871Z,84.40
2018-07-14T10:39:47.905Z,86.50
2018-07-14T10:44:50.931Z,86.00
2018-07-14T10:49:53.912Z,81.10
2018-07-14T10:54:56.954Z,81.80
2018-07-14T10:59:59.975Z,82.00
2018-07-14T11:05:03.000Z,80.30
2018-07-14T11:10:06.008Z,80.20
2018-07-14T11:15:09.043Z,77.00
2018-07-14T11:20:12.073Z,76.20
2018-07-14T11:25:15.140Z,79.80
2018-07-14T11:30:18.243Z,79.20
2018-07-14T11:35:21.218Z,76.80
2018-07-14T11:40:24.246Z,76.40
2018-07-14T11:45:27.268Z,75.50
2018-07-14T11:50:30.283Z,73.10
2018-07-14T11:55:33.287Z,73.10
2018-07-14T12:00:36.283Z,72.60
2018-07-14T12:05:39.359Z,71.70
2018-07-14T12:10:42.467Z,71.50
2018-07-14T12:15:45.474Z,71.40
2018-07-14T12:20:48.475Z,72.30
2018-07-14T12:25:51.481Z,71.50
2018-07-14T12:30:54.542Z,74.00
2018-07-14T12:35:57.591Z,70.60
2018-07-14T12:41:00.602Z,71.20
2018-07-14T12:46:03.666Z,70.60
2018-07-14T12:51:06.908Z,71.70
2018-07-14T12:56:10.058Z,69.00
2018-07-14T13:01:13.084Z,69.40
2018-07-14T13:06:16.133Z,69.00
2018-07-14T13:11:19.323Z,68.60
2018-07-14T13:16:22.431Z,67.40
2018-07-14T13:21:25.430Z,66.10
2018-07-14T13:26:28.484Z,67.60
2018-07-14T13:31:31.541Z,68.00
2018-07-14T13:36:34.554Z,67.50
2018-07-14T13:41:37.631Z,67.50
2018-07-14T13:46:40.656Z,65.10
2018-07-14T13:51:43.660Z,66.50
2018-07-14T13:56:46.680Z,67.80
2018-07-14T14:01:49.681Z,67.40
2018-07-14T14:06:52.668Z,69.00
2018-07-14T14:11:55.675Z,66.50
2018-07-14T14:16:58.771Z,65.80
2018-07-14T14:22:01.876Z,63.50
2018-07-14T14:27:05.084Z,66.00
2018-07-14T14:32:08.145Z,65.30
2018-07-14T14:37:11.165Z,62.50
2018-07-14T14:42:14.186Z,62.00
2018-07-14T14:47:17.214Z,63.30
2018-07-14T14:52:20.309Z,62.40
2018-07-14T14:57:23.379Z,61.00
2018-07-14T15:02:26.418Z,59.10
2018-07-14T15:07:29.528Z,59.10
2018-07-14T15:12:32.603Z,60.00
2018-07-14T15:17:35.631Z,58.50
2018-07-14T15:22:38.630Z,58.60
2018-07-14T15:27:41.635Z,59.50
2018-07-14T15:32:44.658Z,59.60
2018-07-14T15:37:47.746Z,58.60
2018-07-14T15:42:50.824Z,59.40
2018-07-14T15:47:53.855Z,57.80
2018-07-14T15:52:56.855Z,59.50
2018-07-14T15:57:59.947Z,57.70
2018-07-14T16:03:02.991Z,59.00
2018-07-14T16:08:05.976Z,60.90
2018-07-14T16:13:09.152Z,58.40
2018-07-14T16:18:12.251Z,59.30
2018-07-14T16:23:15.305Z,58.90
2018-07-14T16:28:18.361Z,58.50
2018-07-14T16:33:21.371Z,59.40
2018-07-14T16:38:24.397Z,60.10
2018-07-14T16:43:27.453Z,60.00
2018-07-14T16:48:30.516Z,59.80
2018-07-14T16:53:33.578Z,60.20
2018-07-14T16:58:36.624Z,62.00
2018-07-14T17:08:42.491Z,61.40
2018-07-14T17:13:45.597Z,61.90
2018-07-14T17:18:48.583Z,61.60
2018-07-14T17:23:51.606Z,62.70
2018-07-14T17:28:54.717Z,61.70
2018-07-14T17:33:57.742Z,61.60
2018-07-14T17:44:03.747Z,63.90
2018-07-14T17:49:06.807Z,63.50
2018-07-14T17:54:09.835Z,63.50
2018-07-14T17:59:12.847Z,63.40
2018-07-14T18:04:15.851Z,63.40
2018-07-14T18:09:18.842Z,63.20
2018-07-14T18:14:21.873Z,62.50
2018-07-14T18:19:24.919Z,64.30
2018-07-14T18:24:27.975Z,65.10
2018-07-14T18:29:30.998Z,65.80
2018-07-14T18:34:34.092Z,67.80
2018-07-14T18:39:37.099Z,67.50
2018-07-14T18:44:40.137Z,67.50
2018-07-14T18:49:43.195Z,68.00
2018-07-14T18:54:46.229Z,68.40
2018-07-14T18:59:49.262Z,68.10
2018-07-14T19:04:52.293Z,69.30
2018-07-14T19:09:55.311Z,69.20
2018-07-14T19:14:58.420Z,69.20
2018-07-14T19:20:01.388Z,69.10
2018-07-14T19:25:04.420Z,70.00
2018-07-14T19:30:07.606Z,70.40
2018-07-14T19:35:10.624Z,71.10
2018-07-14T19:40:13.623Z,71.30
2018-07-14T19:45:16.625Z,72.00
2018-07-14T19:50:19.637Z,72.80
2018-07-14T20:00:25.818Z,73.30
2018-07-14T20:05:28.856Z,73.00
2018-07-14T20:10:31.907Z,74.30
2018-07-14T20:15:35.014Z,74.30
2018-07-14T20:20:37.976Z,74.50
2018-07-14T20:25:41.013Z,74.80
2018-07-14T20:30:44.067Z,75.60
2018-07-14T20:35:47.069Z,75.80
2018-07-14T20:40:50.081Z,76.60
2018-07-14T20:45:53.074Z,76.30
2018-07-14T20:50:56.079Z,76.90
2018-07-14T20:55:59.088Z,77.30
2018-07-14T21:01:02.095Z,78.30
2018-07-14T21:06:05.157Z,78.40
2018-07-14T21:11:08.191Z,79.10
2018-07-14T21:16:11.211Z,79.10
2018-07-14T21:21:14.323Z,79.10
2018-07-14T21:26:17.321Z,80.10
2018-07-14T21:31:20.343Z,79.40
2018-07-14T21:36:23.389Z,79.30
2018-07-14T21:41:26.400Z,79.10
2018-07-14T21:46:29.416Z,79.50
2018-07-14T21:51:32.433Z,79.70
2018-07-14T21:56:36.248Z,78.90
2018-07-14T22:01:44.839Z,79.00
2018-07-14T22:06:47.924Z,78.90
2018-07-14T22:11:50.972Z,78.90
2018-07-14T22:16:53.989Z,78.60
2018-07-14T22:21:57.033Z,78.90
2018-07-14T22:27:00.043Z,79.40
2018-07-14T22:32:03.099Z,79.60
2018-07-14T22:37:06.121Z,79.40
2018-07-14T22:42:09.152Z,79.80
2018-07-14T22:47:12.182Z,79.60
2018-07-14T22:52:15.208Z,79.90
2018-07-14T22:57:18.245Z,79.80
2018-07-14T23:02:21.372Z,80.30
2018-07-14T23:07:24.413Z,80.60
2018-07-14T23:12:27.448Z,81.30
2018-07-14T23:17:30.447Z,82.00
2018-07-14T23:22:33.475Z,82.30
2018-07-14T23:27:36.695Z,82.30
2018-07-14T23:32:39.739Z,83.00
2018-07-14T23:37:42.751Z,83.60
2018-07-14T23:42:45.783Z,83.70
2018-07-14T23:47:48.808Z,83.80
2018-07-14T23:52:51.830Z,83.50
2018-07-14T23:57:54.990Z,83.80
